Terminal Aerodrome Forecast
Issued by NWS Wilmington, OH

Current Version | Previous Version | Graphics & Text | Print | Product List | Glossary On
Versions: 1 2 3 4 5 6 7 8 9 10 11 12 13 14 15 16 17 18
000
FTUS41 KILN 022300
TAFCMH
TAF
KCMH 022322Z 0300/0324 23005KT P6SM SCT090
     FM030400 VRB02KT P6SM SCT250
     FM031300 20006KT P6SM SCT250
     FM031600 21010KT P6SM BKN060=

USA.gov is the U.S. government's official web portal to all federal, state and local government web resources and services.